createdAt,value
2022-09-05T00:02:33.714Z,3.47
2022-09-05T00:05:29.177Z,3.42
2022-09-05T00:08:22.049Z,3.08
2022-09-05T00:11:43.105Z,2.85
2022-09-05T00:16:49.573Z,3.20
2022-09-05T00:24:34.703Z,2.90
2022-09-05T00:26:03.525Z,3.30
2022-09-05T00:28:44.869Z,3.08
2022-09-05T00:31:54.936Z,2.72
2022-09-05T00:34:56.717Z,3.72
2022-09-05T00:37:36.586Z,3.05
2022-09-05T00:40:28.270Z,3.13
2022-09-05T00:43:09.725Z,3.03
2022-09-05T00:45:52.960Z,3.58
2022-09-05T00:48:44.423Z,3.10
2022-09-05T00:51:49.201Z,3.58
2022-09-05T00:54:40.887Z,3.08
2022-09-05T00:57:38.027Z,3.50
2022-09-05T01:00:20.835Z,3.50
2022-09-05T01:03:06.202Z,3.67
2022-09-05T01:05:52.950Z,3.03
2022-09-05T01:08:22.133Z,3.53
2022-09-05T01:10:57.599Z,3.55
2022-09-05T01:13:49.885Z,3.45
2022-09-05T01:16:27.509Z,3.90
2022-09-05T01:19:27.822Z,3.40
2022-09-05T01:22:20.219Z,3.70
2022-09-05T01:25:08.436Z,3.25
2022-09-05T01:29:14.527Z,3.30
2022-09-05T01:30:55.510Z,3.40
2022-09-05T01:33:49.497Z,2.80
2022-09-05T01:36:47.100Z,3.35
2022-09-05T01:40:14.374Z,3.22
2022-09-05T01:42:29.481Z,3.40
2022-09-05T01:45:24.627Z,3.50
2022-09-05T01:48:23.693Z,3.30
2022-09-05T01:51:36.946Z,3.88
2022-09-05T01:54:29.738Z,3.72
2022-09-05T01:57:36.301Z,3.15
2022-09-05T02:00:12.199Z,3.85
2022-09-05T02:02:50.470Z,3.40
2022-09-05T02:05:47.577Z,3.28
2022-09-05T02:08:15.730Z,3.42
2022-09-05T02:11:00.749Z,3.15
2022-09-05T02:13:35.998Z,3.28
2022-09-05T02:16:24.174Z,3.08
2022-09-05T02:18:58.967Z,3.67
2022-09-05T02:21:34.594Z,3.75
2022-09-05T02:24:33.395Z,3.33
2022-09-05T02:27:12.518Z,3.65
2022-09-05T02:30:19.112Z,3.22
2022-09-05T02:33:12.448Z,3.60
2022-09-05T02:36:05.485Z,3.35
2022-09-05T02:41:24.505Z,3.47
2022-09-05T02:45:12.795Z,3.13
2022-09-05T02:45:15.329Z,4.00
2022-09-05T02:48:16.268Z,3.70
2022-09-05T02:55:56.112Z,3.90
2022-09-05T02:57:42.663Z,3.17
2022-09-05T02:58:04.728Z,4.10
2022-09-05T03:00:16.008Z,3.20
2022-09-05T03:03:16.870Z,3.10
2022-09-05T03:05:56.645Z,3.22
2022-09-05T03:08:51.944Z,3.95
2022-09-05T03:11:47.925Z,3.63
2022-09-05T03:14:41.975Z,3.42
2022-09-05T03:17:11.345Z,3.70
2022-09-05T03:20:06.200Z,3.47
2022-09-05T03:22:52.261Z,3.28
2022-09-05T03:25:55.686Z,3.40
2022-09-05T03:29:08.117Z,3.97
2022-09-05T03:31:59.011Z,3.58
2022-09-05T03:37:41.711Z,3.38
2022-09-05T03:40:16.954Z,3.50
2022-09-05T03:42:58.851Z,3.45
2022-09-05T03:46:01.802Z,3.60
2022-09-05T03:48:40.091Z,3.33
2022-09-05T03:57:07.416Z,3.85
2022-09-05T03:57:15.838Z,3.92
2022-09-05T03:57:43.472Z,4.60
2022-09-05T04:00:34.392Z,3.88
2022-09-05T04:08:29.250Z,3.55
2022-09-05T04:08:48.019Z,4.53
2022-09-05T04:11:36.063Z,4.43
2022-09-05T04:14:46.217Z,3.92
2022-09-05T04:17:27.321Z,4.20
2022-09-05T04:20:17.973Z,3.97
2022-09-05T04:23:23.618Z,4.03
2022-09-05T04:26:11.384Z,4.57
2022-09-05T04:28:58.669Z,4.50
2022-09-05T04:32:18.396Z,4.60
2022-09-05T04:35:04.230Z,4.13
2022-09-05T04:37:48.816Z,4.35
2022-09-05T04:40:37.574Z,3.53
2022-09-05T04:43:28.669Z,4.43
2022-09-05T04:46:19.001Z,4.18
2022-09-05T04:51:36.113Z,3.85
2022-09-05T04:54:29.962Z,3.70
2022-09-05T04:57:13.769Z,3.97
2022-09-05T05:03:03.245Z,4.32
2022-09-05T05:06:01.607Z,4.25
2022-09-05T05:06:14.484Z,3.78
2022-09-05T05:08:46.310Z,3.92
2022-09-05T05:13:51.196Z,4.43
2022-09-05T05:18:03.223Z,3.83
2022-09-05T05:18:16.247Z,3.72
2022-09-05T05:20:41.427Z,4.00
2022-09-05T05:23:17.115Z,4.25
2022-09-05T05:25:51.475Z,4.68
2022-09-05T05:28:29.286Z,4.32
2022-09-05T05:31:08.105Z,3.80
2022-09-05T05:33:38.898Z,3.45
2022-09-05T05:36:09.768Z,3.75
2022-09-05T05:38:48.916Z,3.70
2022-09-05T05:41:27.360Z,3.67
2022-09-05T05:43:54.211Z,3.42
2022-09-05T05:46:33.233Z,3.97
2022-09-05T05:49:11.931Z,4.05
2022-09-05T05:52:06.295Z,3.33
2022-09-05T05:55:07.342Z,3.97
2022-09-05T05:58:02.149Z,3.92
2022-09-05T06:00:54.612Z,3.85
2022-09-05T06:03:39.793Z,4.25
2022-09-05T06:06:32.292Z,4.20
2022-09-05T06:14:48.234Z,4.10
2022-09-05T06:14:59.829Z,4.10
2022-09-05T06:16:17.662Z,4.32
2022-09-05T06:18:50.130Z,4.47
2022-09-05T06:22:13.198Z,4.10
2022-09-05T06:25:16.343Z,4.47
2022-09-05T06:28:17.934Z,4.10
2022-09-05T06:31:29.309Z,4.25
2022-09-05T06:34:32.998Z,3.92
2022-09-05T06:37:10.549Z,3.80
2022-09-05T06:40:00.515Z,5.90
2022-09-05T06:43:06.034Z,3.58
2022-09-05T06:46:03.193Z,4.38
2022-09-05T06:48:44.674Z,4.20
2022-09-05T06:51:37.197Z,4.00
2022-09-05T06:54:41.415Z,4.57
2022-09-05T06:57:44.442Z,4.05
2022-09-05T07:00:19.636Z,4.43
2022-09-05T07:03:20.565Z,4.20
2022-09-05T07:06:04.646Z,3.95
2022-09-05T07:08:51.243Z,4.00
2022-09-05T07:11:25.440Z,4.13
2022-09-05T07:14:18.703Z,4.40
2022-09-05T07:16:57.253Z,4.47
2022-09-05T07:19:34.422Z,6.93
2022-09-05T07:22:33.450Z,4.38
2022-09-05T07:24:57.997Z,3.85
2022-09-05T07:27:41.758Z,4.25
2022-09-05T07:30:21.793Z,9.18
2022-09-05T07:32:53.553Z,4.35
2022-09-05T07:35:38.455Z,3.90
2022-09-05T07:38:16.021Z,4.43
2022-09-05T07:40:52.135Z,3.70
2022-09-05T07:43:30.382Z,3.65
2022-09-05T07:46:08.238Z,3.67
2022-09-05T07:48:40.294Z,4.10
2022-09-05T07:56:50.805Z,3.63
2022-09-05T07:56:59.131Z,3.40
2022-09-05T07:57:31.409Z,3.78
2022-09-05T08:00:05.585Z,4.10
2022-09-05T08:02:32.059Z,3.42
2022-09-05T08:05:05.864Z,3.83
2022-09-05T08:07:49.804Z,3.50
2022-09-05T08:10:35.914Z,4.60
2022-09-05T08:13:28.066Z,3.53
2022-09-05T08:16:11.091Z,3.65
2022-09-05T08:18:46.623Z,3.30
2022-09-05T08:21:27.425Z,3.35
2022-09-05T08:24:13.942Z,2.95
2022-09-05T08:26:49.608Z,3.30
2022-09-05T08:29:29.805Z,2.95
2022-09-05T08:32:11.297Z,3.33
2022-09-05T08:34:47.760Z,3.22
2022-09-05T08:37:20.993Z,3.40
2022-09-05T08:40:10.006Z,3.13
2022-09-05T08:42:57.165Z,3.28
2022-09-05T08:46:45.642Z,3.22
2022-09-05T08:49:13.004Z,2.70
2022-09-05T08:51:55.950Z,2.88
2022-09-05T08:54:34.471Z,3.13
2022-09-05T08:57:06.819Z,3.15
2022-09-05T08:59:57.844Z,3.22
2022-09-05T09:03:04.433Z,2.65
2022-09-05T09:06:15.135Z,2.70
2022-09-05T09:08:54.549Z,2.85
2022-09-05T09:11:38.306Z,3.35
2022-09-05T09:14:31.183Z,2.50
2022-09-05T09:17:26.169Z,2.20
2022-09-05T09:20:11.527Z,2.40
2022-09-05T09:22:52.042Z,2.22
2022-09-05T09:25:31.908Z,2.40
2022-09-05T09:28:48.539Z,2.58
2022-09-05T09:31:23.316Z,2.33
2022-09-05T09:34:04.354Z,3.05
2022-09-05T09:37:01.901Z,2.50
2022-09-05T09:39:39.679Z,2.22
2022-09-05T09:42:39.191Z,2.03
2022-09-05T09:45:29.595Z,2.03
2022-09-05T09:48:09.871Z,1.85
2022-09-05T09:50:58.408Z,2.20
2022-09-05T09:53:36.991Z,2.22
2022-09-05T09:56:26.902Z,1.95
2022-09-05T09:59:14.058Z,2.00
2022-09-05T10:03:36.318Z,2.53
2022-09-05T10:10:34.023Z,2.38
2022-09-05T10:10:49.152Z,1.95
2022-09-05T10:11:55.058Z,2.10
2022-09-05T10:14:49.804Z,2.40
2022-09-05T10:17:31.943Z,2.75
2022-09-05T10:20:12.017Z,1.92
2022-09-05T10:23:02.229Z,1.80
2022-09-05T10:25:43.802Z,1.92
2022-09-05T10:28:34.553Z,2.38
2022-09-05T10:35:06.907Z,2.13
2022-09-05T10:35:10.609Z,2.05
2022-09-05T10:37:13.984Z,2.20
2022-09-05T10:39:45.285Z,2.03
2022-09-05T10:42:40.236Z,1.83
2022-09-05T10:45:38.676Z,2.28
2022-09-05T10:48:26.114Z,2.97
2022-09-05T10:51:00.903Z,2.28
2022-09-05T10:53:44.151Z,2.55
2022-09-05T10:56:27.125Z,1.98
2022-09-05T10:59:50.105Z,1.75
2022-09-05T11:02:27.976Z,1.90
2022-09-05T11:04:51.123Z,2.03
2022-09-05T11:07:26.632Z,1.88
2022-09-05T11:10:13.248Z,1.48
2022-09-05T11:12:57.201Z,1.95
2022-09-05T11:15:39.296Z,1.80
2022-09-05T11:18:18.123Z,1.75
2022-09-05T11:21:00.989Z,1.67
2022-09-05T11:23:46.673Z,1.63
2022-09-05T11:26:51.419Z,1.58
2022-09-05T11:29:43.230Z,1.50
2022-09-05T11:35:50.021Z,1.45
2022-09-05T11:39:49.192Z,1.60
2022-09-05T11:40:08.376Z,1.60
2022-09-05T11:42:09.478Z,1.42
2022-09-05T11:44:57.727Z,1.27
2022-09-05T11:47:39.792Z,1.85
2022-09-05T11:50:10.193Z,1.65
2022-09-05T11:52:57.804Z,1.50
2022-09-05T11:55:30.305Z,1.85
2022-09-05T11:58:43.400Z,2.03
2022-09-05T12:01:41.227Z,1.52
2022-09-05T12:04:33.122Z,1.52
2022-09-05T12:07:24.099Z,1.80
2022-09-05T12:12:44.259Z,2.20
2022-09-05T12:15:26.336Z,1.75
2022-09-05T12:18:18.901Z,1.60
2022-09-05T12:20:56.303Z,1.90
2022-09-05T12:24:11.597Z,1.80
2022-09-05T12:27:39.805Z,1.75
2022-09-05T12:29:49.022Z,1.77
2022-09-05T12:33:28.347Z,1.83
2022-09-05T12:36:12.192Z,1.48
2022-09-05T12:40:55.373Z,1.58
2022-09-05T12:41:46.170Z,1.50
2022-09-05T12:44:42.788Z,1.40
2022-09-05T12:46:49.415Z,1.73
2022-09-05T12:49:36.151Z,1.67
2022-09-05T12:52:13.310Z,1.50
2022-09-05T12:54:51.022Z,1.48
2022-09-05T13:01:33.341Z,1.58
2022-09-05T13:03:15.335Z,1.48
2022-09-05T13:06:24.874Z,1.63
2022-09-05T13:09:02.634Z,1.73
2022-09-05T13:14:53.362Z,1.88
2022-09-05T13:15:02.405Z,2.40
2022-09-05T13:17:14.999Z,1.77
2022-09-05T13:19:45.143Z,1.92
2022-09-05T13:22:16.443Z,1.80
2022-09-05T13:24:49.880Z,1.35
2022-09-05T13:27:29.465Z,1.40
2022-09-05T13:30:54.822Z,1.70
2022-09-05T13:37:59.938Z,1.67
2022-09-05T13:38:17.982Z,1.52
2022-09-05T13:39:02.666Z,1.65
2022-09-05T13:41:37.309Z,1.50
2022-09-05T13:44:27.069Z,1.50
2022-09-05T13:47:28.941Z,1.80
2022-09-05T13:50:26.823Z,2.00
2022-09-05T13:52:58.621Z,1.50
2022-09-05T13:55:39.430Z,1.60
2022-09-05T13:58:16.387Z,1.65
2022-09-05T14:01:04.294Z,1.80
2022-09-05T14:03:56.329Z,1.70
2022-09-05T14:06:47.750Z,1.42
2022-09-05T14:09:37.117Z,1.48
2022-09-05T14:18:12.784Z,1.52
2022-09-05T14:21:02.344Z,1.60
2022-09-05T14:23:43.988Z,1.90
2022-09-05T14:26:21.584Z,1.88
2022-09-05T14:29:05.099Z,1.70
2022-09-05T14:37:48.500Z,1.73
2022-09-05T14:38:01.011Z,1.90
2022-09-05T14:38:13.611Z,1.88
2022-09-05T14:40:47.093Z,1.40
2022-09-05T14:43:47.548Z,1.65
2022-09-05T14:46:49.823Z,1.58
2022-09-05T14:49:38.686Z,2.05
2022-09-05T14:52:23.586Z,2.45
2022-09-05T15:02:44.079Z,2.00
2022-09-05T15:02:50.744Z,1.70
2022-09-05T15:06:33.219Z,1.77
2022-09-05T15:12:18.301Z,1.70
2022-09-05T15:12:22.232Z,1.60
2022-09-05T15:14:36.139Z,1.83
2022-09-05T15:17:05.724Z,1.60
2022-09-05T15:20:05.460Z,1.48
2022-09-05T15:22:40.801Z,1.70
2022-09-05T15:25:16.717Z,2.03
2022-09-05T15:27:44.432Z,1.85
2022-09-05T15:30:27.547Z,1.80
2022-09-05T15:33:25.548Z,2.28
2022-09-05T15:35:52.665Z,1.92
2022-09-05T15:38:30.056Z,1.63
2022-09-05T15:41:21.819Z,1.70
2022-09-05T15:43:48.162Z,2.33
2022-09-05T15:46:24.869Z,1.98
2022-09-05T15:48:57.767Z,2.17
2022-09-05T15:51:36.234Z,2.05
2022-09-05T15:54:05.020Z,1.92
2022-09-05T15:56:33.719Z,1.80
2022-09-05T15:59:01.654Z,2.00
2022-09-05T16:01:58.734Z,2.10
2022-09-05T16:09:49.928Z,2.15
2022-09-05T16:10:33.927Z,2.10
2022-09-05T16:10:58.330Z,1.90
2022-09-05T16:13:15.679Z,2.25
2022-09-05T16:19:36.252Z,1.95
2022-09-05T16:23:26.555Z,1.63
2022-09-05T16:23:28.096Z,2.00
2022-09-05T16:24:34.876Z,1.83
2022-09-05T16:27:16.518Z,1.95
2022-09-05T16:29:44.970Z,1.90
2022-09-05T16:32:21.338Z,1.70
2022-09-05T16:35:10.595Z,1.80
2022-09-05T16:37:46.339Z,1.90
2022-09-05T16:40:24.829Z,2.10
2022-09-05T16:43:28.512Z,2.08
2022-09-05T16:46:21.294Z,2.05
2022-09-05T16:49:36.843Z,2.10
2022-09-05T16:52:17.057Z,3.15
2022-09-05T16:54:56.848Z,3.03
2022-09-05T16:57:29.203Z,3.28
2022-09-05T16:59:57.344Z,3.88
2022-09-05T17:02:48.458Z,4.53
2022-09-05T17:05:43.606Z,3.92
2022-09-05T17:08:27.985Z,3.65
2022-09-05T17:11:03.970Z,2.78
2022-09-05T17:13:52.209Z,2.95
2022-09-05T17:16:31.342Z,2.45
2022-09-05T17:19:00.680Z,2.55
2022-09-05T17:29:16.083Z,2.55
2022-09-05T17:29:17.525Z,3.07
2022-09-05T17:29:27.607Z,2.85
2022-09-05T17:31:48.881Z,3.30
2022-09-05T17:32:51.543Z,2.80
2022-09-05T17:36:02.533Z,4.07
2022-09-05T17:39:16.816Z,4.20
2022-09-05T17:42:07.881Z,3.75
2022-09-05T17:44:57.445Z,3.53
2022-09-05T17:47:35.874Z,3.20
2022-09-05T17:50:12.967Z,3.00
2022-09-05T17:52:54.623Z,3.03
2022-09-05T17:55:41.061Z,3.30
2022-09-05T17:58:39.928Z,3.53
2022-09-05T18:01:19.741Z,3.22
2022-09-05T18:03:49.474Z,3.25
2022-09-05T18:06:15.895Z,3.58
2022-09-05T18:08:45.144Z,2.85
2022-09-05T18:11:33.523Z,3.47
2022-09-05T18:14:24.437Z,3.47
2022-09-05T18:17:37.245Z,3.60
2022-09-05T18:19:40.855Z,3.70
2022-09-05T18:22:28.310Z,3.65
2022-09-05T18:25:28.894Z,3.50
2022-09-05T18:28:13.886Z,3.53
2022-09-05T18:30:40.323Z,3.90
2022-09-05T18:33:56.303Z,3.35
2022-09-05T18:35:59.492Z,3.60
2022-09-05T18:38:51.272Z,4.07
2022-09-05T18:41:21.827Z,3.58
2022-09-05T18:44:00.567Z,4.20
2022-09-05T18:46:46.172Z,3.90
2022-09-05T18:50:25.964Z,3.83
2022-09-05T18:52:27.211Z,3.65
2022-09-05T18:56:09.131Z,3.90
2022-09-05T18:58:21.246Z,4.07
2022-09-05T19:00:54.914Z,4.20
2022-09-05T19:03:28.948Z,3.72
2022-09-05T19:06:35.251Z,3.60
2022-09-05T19:08:55.378Z,4.40
2022-09-05T19:11:52.743Z,3.80
2022-09-05T19:14:38.364Z,3.80
2022-09-05T19:17:17.787Z,3.88
2022-09-05T19:20:11.292Z,4.28
2022-09-05T19:23:10.803Z,3.60
2022-09-05T19:25:41.173Z,3.55
2022-09-05T19:36:36.311Z,4.25
2022-09-05T19:36:45.878Z,4.43
2022-09-05T19:37:06.085Z,4.35
2022-09-05T19:37:29.553Z,4.18
2022-09-05T19:42:20.058Z,3.85
2022-09-05T19:47:27.525Z,4.13
2022-09-05T19:47:45.336Z,3.53
2022-09-05T19:50:58.047Z,3.53
2022-09-05T19:53:27.131Z,3.22
2022-09-05T19:55:53.870Z,3.78
2022-09-05T19:58:22.528Z,3.90
2022-09-05T20:01:02.525Z,3.65
2022-09-05T20:03:39.357Z,3.60
2022-09-05T20:06:30.348Z,3.50
2022-09-05T20:09:17.474Z,3.05
2022-09-05T20:11:51.950Z,3.85
2022-09-05T20:14:23.271Z,3.63
2022-09-05T20:16:51.921Z,3.20
2022-09-05T20:19:28.915Z,4.03
2022-09-05T20:21:57.542Z,3.90
2022-09-05T20:24:24.331Z,3.47
2022-09-05T20:26:51.299Z,3.40
2022-09-05T20:29:34.856Z,3.88
2022-09-05T20:32:34.990Z,3.75
2022-09-05T20:38:44.485Z,3.80
2022-09-05T20:43:22.466Z,3.80
2022-09-05T20:43:25.327Z,3.63
2022-09-05T20:43:54.841Z,3.55
2022-09-05T20:49:49.863Z,3.40
2022-09-05T20:54:09.131Z,4.05
2022-09-05T20:54:14.531Z,3.20
2022-09-05T20:54:58.283Z,3.42
2022-09-05T20:57:34.364Z,3.60
2022-09-05T21:00:24.748Z,3.70
2022-09-05T21:02:56.672Z,3.97
2022-09-05T21:05:29.758Z,3.50
2022-09-05T21:08:14.961Z,4.00
2022-09-05T21:10:57.026Z,3.83
2022-09-05T21:13:32.722Z,3.97
2022-09-05T21:16:00.203Z,3.67
2022-09-05T21:18:33.647Z,4.20
2022-09-05T21:21:27.885Z,4.03
2022-09-05T21:24:16.099Z,3.88
2022-09-05T21:26:45.364Z,3.92
2022-09-05T21:29:11.786Z,4.20
2022-09-05T21:31:54.479Z,4.00
2022-09-05T21:34:34.949Z,4.22
2022-09-05T21:37:07.696Z,4.25
2022-09-05T21:39:46.475Z,3.60
2022-09-05T21:47:38.255Z,3.90
2022-09-05T21:47:42.443Z,3.67
2022-09-05T21:47:58.639Z,3.58
2022-09-05T21:50:31.060Z,3.63
2022-09-05T21:53:17.481Z,3.38
2022-09-05T21:59:32.700Z,4.38
2022-09-05T21:59:33.446Z,4.03
2022-09-05T22:01:44.737Z,4.32
2022-09-05T22:04:10.118Z,4.30
2022-09-05T22:06:36.608Z,4.07
2022-09-05T22:09:13.924Z,3.78
2022-09-05T22:11:41.125Z,4.18
2022-09-05T22:14:07.713Z,4.00
2022-09-05T22:16:34.412Z,3.72
2022-09-05T22:19:01.233Z,4.10
2022-09-05T22:21:34.592Z,4.10
2022-09-05T22:24:09.343Z,3.58
2022-09-05T22:26:41.630Z,4.68
2022-09-05T22:29:25.686Z,4.33
2022-09-05T22:31:54.993Z,4.07
2022-09-05T22:34:21.912Z,4.43
2022-09-05T22:36:48.597Z,4.22
2022-09-05T22:39:16.638Z,4.25
2022-09-05T22:42:01.417Z,4.35
2022-09-05T22:44:30.397Z,4.00
2022-09-05T22:46:56.814Z,3.80
2022-09-05T22:49:23.230Z,4.00
2022-09-05T22:51:49.690Z,4.50
2022-09-05T22:54:16.203Z,4.22
2022-09-05T22:56:42.678Z,4.13
2022-09-05T22:59:09.388Z,4.22
2022-09-05T23:01:35.804Z,3.97
2022-09-05T23:04:02.573Z,4.18
2022-09-05T23:06:29.056Z,4.38
2022-09-05T23:08:55.404Z,3.63
2022-09-05T23:11:21.757Z,4.50
2022-09-05T23:13:48.215Z,4.18
2022-09-05T23:16:15.056Z,4.25
2022-09-05T23:18:41.680Z,4.53
2022-09-05T23:21:10.697Z,4.50
2022-09-05T23:23:38.795Z,4.30
2022-09-05T23:26:07.414Z,4.20
2022-09-05T23:28:33.958Z,4.63
2022-09-05T23:31:01.859Z,4.97
2022-09-05T23:33:29.256Z,3.92
2022-09-05T23:36:02.597Z,4.10
2022-09-05T23:38:29.397Z,4.63
2022-09-05T23:41:00.315Z,4.53
2022-09-05T23:43:27.238Z,3.80
2022-09-05T23:45:53.826Z,4.05
2022-09-05T23:48:20.707Z,4.22
2022-09-05T23:50:47.070Z,3.67
2022-09-05T23:53:13.724Z,4.00
2022-09-05T23:55:40.270Z,4.55
2022-09-05T23:58:06.911Z,4.47
